Campo Largo, Brazil
Current Conditions -  °F | °C
As of 8:00 AM on Monday 20 Oct 2014 (Local Time) from SBBI Reporting Station
Drizzle Drizzle  
Wind Chill: 61°   Ceiling: 300
Heat Index: 61°   Visibility: 1.8mi
Dew Point: 59°   Wind: 5mph
Humidity: 94%   Direction: 120°ESE
Pressure: 30.12"   Gusts: NA
Location:  25.44°S, 49.54°W
Report Text: SBBI 201100Z 12004KT 3000 -DZ BKN003 BKN009 16/15 Q1020
Loading
Personal Weather Stations






























Interactive Weather Map
Tropical Storm Tracking
New forecast layout! Learn more

10-Day Weather Forecast

Advertisements
Track Severe Weather on mobile